createdAt,value
2023-10-11T00:03:53.992Z,5.13
2023-10-11T00:07:59.246Z,5.15
2023-10-11T00:12:05.657Z,4.72
2023-10-11T00:16:10.655Z,6.20
2023-10-11T00:20:29.379Z,5.18
2023-10-11T00:24:33.142Z,5.47
2023-10-11T00:28:42.606Z,5.60
2023-10-11T00:32:46.728Z,4.45
2023-10-11T00:36:51.627Z,5.55
2023-10-11T00:41:08.540Z,5.07
2023-10-11T00:45:18.284Z,5.40
2023-10-11T00:49:23.203Z,5.05
2023-10-11T00:53:28.417Z,6.03
2023-10-11T00:57:36.655Z,5.25
2023-10-11T01:01:41.766Z,6.57
2023-10-11T01:05:50.501Z,6.05
2023-10-11T01:09:54.127Z,6.05
2023-10-11T01:14:00.572Z,6.28
2023-10-11T01:18:05.799Z,5.53
2023-10-11T01:22:10.929Z,5.53
2023-10-11T01:26:16.718Z,5.35
2023-10-11T01:30:20.116Z,6.63
2023-10-11T01:34:28.345Z,7.00
2023-10-11T01:38:34.772Z,8.48
2023-10-11T01:42:38.762Z,10.15
2023-10-11T01:46:42.767Z,10.02
2023-10-11T01:50:49.073Z,10.43
2023-10-11T01:54:58.127Z,10.43
2023-10-11T01:59:03.094Z,9.60
2023-10-11T02:03:09.822Z,9.38
2023-10-11T02:07:14.037Z,8.70
2023-10-11T02:11:24.657Z,7.93
2023-10-11T02:15:30.669Z,8.25
2023-10-11T02:19:36.462Z,9.52
2023-10-11T02:23:41.465Z,10.32
2023-10-11T02:27:46.777Z,8.30
2023-10-11T02:31:52.795Z,8.52
2023-10-11T02:36:09.804Z,9.90
2023-10-11T02:40:17.921Z,8.45
2023-10-11T02:44:24.587Z,11.27
2023-10-11T02:48:28.883Z,9.65
2023-10-11T02:52:37.512Z,9.93
2023-10-11T02:56:48.412Z,9.48
2023-10-11T03:01:07.900Z,9.32
2023-10-11T03:05:28.533Z,9.75
2023-10-11T03:09:34.538Z,10.00
2023-10-11T03:13:43.409Z,11.07
2023-10-11T03:17:54.725Z,9.15
2023-10-11T03:21:58.955Z,9.35
2023-10-11T03:26:17.576Z,8.52
2023-10-11T03:30:25.365Z,6.90
2023-10-11T03:34:32.174Z,5.82
2023-10-11T03:38:35.674Z,7.15
2023-10-11T03:42:55.250Z,7.25
2023-10-11T03:47:00.184Z,7.70
2023-10-11T03:51:08.576Z,8.55
2023-10-11T03:55:14.426Z,8.45
2023-10-11T03:59:20.057Z,5.85
2023-10-11T04:03:23.476Z,5.57
2023-10-11T04:07:32.954Z,5.68
2023-10-11T04:11:40.913Z,5.63
2023-10-11T04:15:51.044Z,6.32
2023-10-11T04:20:01.361Z,6.30
2023-10-11T04:24:08.336Z,6.90
2023-10-11T04:28:14.084Z,8.10
2023-10-11T04:32:21.608Z,8.52
2023-10-11T04:36:25.706Z,8.13
2023-10-11T04:40:51.147Z,7.80
2023-10-11T04:44:58.660Z,9.10
2023-10-11T04:49:22.319Z,7.68
2023-10-11T04:53:34.420Z,6.95
2023-10-11T04:57:42.115Z,5.63
2023-10-11T05:02:00.331Z,5.88
2023-10-11T05:06:14.478Z,6.65
2023-10-11T05:10:31.819Z,5.18
2023-10-11T05:14:41.196Z,7.38
2023-10-11T05:18:45.249Z,9.38
2023-10-11T05:22:56.410Z,8.93
2023-10-11T05:27:13.476Z,7.75
2023-10-11T05:31:35.943Z,5.65
2023-10-11T05:36:06.350Z,7.28
2023-10-11T05:40:30.362Z,6.20
2023-10-11T05:44:52.191Z,7.72
2023-10-11T05:49:14.880Z,5.50
2023-10-11T05:53:22.133Z,5.82
2023-10-11T05:57:29.728Z,5.65
2023-10-11T06:01:35.540Z,5.40
2023-10-11T06:05:42.755Z,5.25
2023-10-11T06:09:47.556Z,4.85
2023-10-11T06:13:54.200Z,6.18
2023-10-11T06:17:58.154Z,4.88
2023-10-11T06:22:11.568Z,6.90
2023-10-11T06:26:51.695Z,6.00
2023-10-11T06:30:54.989Z,6.25
2023-10-11T06:34:58.854Z,5.53
2023-10-11T06:39:21.972Z,6.65
2023-10-11T06:47:35.374Z,5.85
2023-10-11T06:51:39.428Z,6.78
2023-10-11T06:55:49.604Z,7.95
2023-10-11T06:59:58.400Z,7.38
2023-10-11T07:04:02.359Z,6.95
2023-10-11T07:08:09.468Z,6.63
2023-10-11T07:12:28.222Z,6.05
2023-10-11T07:16:33.014Z,6.88
2023-10-11T07:20:49.239Z,6.95
2023-10-11T07:24:57.270Z,7.50
2023-10-11T07:29:03.963Z,6.03
2023-10-11T07:33:07.887Z,6.15
2023-10-11T07:37:13.665Z,6.25
2023-10-11T07:41:25.570Z,6.25
2023-10-11T07:45:31.684Z,5.13
2023-10-11T07:49:40.776Z,6.30
2023-10-11T07:53:46.123Z,4.68
2023-10-11T07:57:49.640Z,5.05
2023-10-11T08:01:58.770Z,5.30
2023-10-11T08:06:06.540Z,5.38
2023-10-11T08:10:32.218Z,5.55
2023-10-11T08:14:35.707Z,5.30
2023-10-11T08:18:40.479Z,5.38
2023-10-11T08:22:48.009Z,4.60
2023-10-11T08:26:53.740Z,4.68
2023-10-11T08:31:00.128Z,5.38
2023-10-11T08:35:06.000Z,4.07
2023-10-11T08:39:14.687Z,4.97
2023-10-11T08:43:19.835Z,4.95
2023-10-11T08:47:23.447Z,5.38
2023-10-11T08:51:37.888Z,5.65
2023-10-11T08:55:42.122Z,5.60
2023-10-11T08:59:51.960Z,4.28
2023-10-11T09:04:06.775Z,4.40
2023-10-11T09:08:23.072Z,5.22
2023-10-11T09:12:27.472Z,4.90
2023-10-11T09:16:36.799Z,3.97
2023-10-11T09:20:45.679Z,4.32
2023-10-11T09:25:08.967Z,4.25
2023-10-11T09:29:17.986Z,3.58
2023-10-11T09:33:23.447Z,3.80
2023-10-11T09:37:33.140Z,4.22
2023-10-11T09:41:42.094Z,4.10
2023-10-11T09:45:55.940Z,3.88
2023-10-11T09:50:02.864Z,4.13
2023-10-11T09:54:14.793Z,4.18
2023-10-11T09:58:31.989Z,3.72
2023-10-11T10:02:39.049Z,3.40
2023-10-11T10:07:13.901Z,3.20
2023-10-11T10:11:22.020Z,3.95
2023-10-11T10:15:35.150Z,3.65
2023-10-11T10:19:47.543Z,2.97
2023-10-11T10:23:52.885Z,3.03
2023-10-11T10:28:02.252Z,3.08
2023-10-11T10:32:20.553Z,3.67
2023-10-11T10:36:39.105Z,3.28
2023-10-11T10:40:47.359Z,3.58
2023-10-11T10:44:53.501Z,3.78
2023-10-11T10:48:58.955Z,3.15
2023-10-11T10:53:04.411Z,3.50
2023-10-11T10:57:09.604Z,3.17
2023-10-11T11:01:13.970Z,3.10
2023-10-11T11:05:28.141Z,2.83
2023-10-11T11:09:36.747Z,2.92
2023-10-11T11:13:41.940Z,3.13
2023-10-11T11:17:52.689Z,3.08
2023-10-11T11:22:13.393Z,3.25
2023-10-11T11:30:35.741Z,2.67
2023-10-11T11:34:43.027Z,2.70
2023-10-11T11:38:51.061Z,3.22
2023-10-11T11:42:56.302Z,2.75
2023-10-11T11:47:05.808Z,3.28
2023-10-11T11:51:17.881Z,3.13
2023-10-11T11:55:27.797Z,3.30
2023-10-11T11:59:32.578Z,2.42
2023-10-11T12:03:37.827Z,2.42
2023-10-11T12:07:41.885Z,2.80
2023-10-11T12:11:51.316Z,3.00
2023-10-11T12:15:58.053Z,2.67
2023-10-11T12:20:01.629Z,3.55
2023-10-11T12:24:24.315Z,2.42
2023-10-11T12:28:43.890Z,2.55
2023-10-11T12:32:50.139Z,2.90
2023-10-11T12:36:56.326Z,2.83
2023-10-11T12:41:02.596Z,2.75
2023-10-11T12:45:11.566Z,2.78
2023-10-11T12:49:16.164Z,2.05
2023-10-11T12:53:22.745Z,2.25
2023-10-11T12:57:30.151Z,2.25
2023-10-11T13:01:41.609Z,2.60
2023-10-11T13:05:47.324Z,2.93
2023-10-11T13:09:50.679Z,2.58
2023-10-11T13:14:12.338Z,2.83
2023-10-11T13:18:26.183Z,3.57
2023-10-11T13:22:36.640Z,2.85
2023-10-11T13:26:44.550Z,2.58
2023-10-11T13:35:19.422Z,2.95
2023-10-11T13:39:34.664Z,2.88
2023-10-11T13:43:39.059Z,2.80
2023-10-11T13:47:43.012Z,2.88
2023-10-11T13:51:49.901Z,2.88
2023-10-11T13:55:56.315Z,3.17
2023-10-11T14:00:24.237Z,3.47
2023-10-11T14:04:49.158Z,3.45
2023-10-11T14:08:54.439Z,3.00
2023-10-11T14:13:10.758Z,3.28
2023-10-11T14:17:16.994Z,3.25
2023-10-11T14:21:26.614Z,3.80
2023-10-11T14:25:31.783Z,3.25
2023-10-11T14:33:54.167Z,2.63
2023-10-11T14:38:16.707Z,3.03
2023-10-11T14:42:26.224Z,3.97
2023-10-11T14:46:31.028Z,3.15
2023-10-11T14:50:48.466Z,3.65
2023-10-11T14:55:06.523Z,3.40
2023-10-11T14:59:13.825Z,3.13
2023-10-11T15:03:17.942Z,3.53
2023-10-11T15:07:21.815Z,2.35
2023-10-11T15:11:29.903Z,4.13
2023-10-11T15:15:35.696Z,2.53
2023-10-11T15:19:40.624Z,2.70
2023-10-11T15:23:45.683Z,2.72
2023-10-11T15:27:50.530Z,2.90
2023-10-11T15:31:55.586Z,3.05
2023-10-11T15:36:01.456Z,2.28
2023-10-11T15:40:07.209Z,2.55
2023-10-11T15:44:17.747Z,3.47
2023-10-11T15:48:23.919Z,3.05
2023-10-11T15:52:27.926Z,2.90
2023-10-11T15:56:34.422Z,3.00
2023-10-11T16:00:43.329Z,2.10
2023-10-11T16:04:49.444Z,3.10
2023-10-11T16:08:53.568Z,2.72
2023-10-11T16:12:59.019Z,3.42
2023-10-11T16:17:05.543Z,2.95
2023-10-11T16:21:12.483Z,2.75
2023-10-11T16:25:20.306Z,2.60
2023-10-11T16:29:56.122Z,3.13
2023-10-11T16:34:57.546Z,1.77
2023-10-11T16:39:02.644Z,2.85
2023-10-11T16:43:06.930Z,2.88
2023-10-11T16:47:10.768Z,2.78
2023-10-11T16:51:17.374Z,3.00
2023-10-11T16:55:23.271Z,3.42
2023-10-11T16:59:26.681Z,3.25
2023-10-11T17:03:30.629Z,2.65
2023-10-11T17:07:34.102Z,2.97
2023-10-11T17:11:39.333Z,3.80
2023-10-11T17:15:45.777Z,4.30
2023-10-11T17:19:51.298Z,2.58
2023-10-11T17:23:55.001Z,3.40
2023-10-11T17:28:00.765Z,3.20
2023-10-11T17:36:34.839Z,3.75
2023-10-11T17:40:39.064Z,3.08
2023-10-11T17:44:45.465Z,3.53
2023-10-11T17:48:50.224Z,3.50
2023-10-11T17:52:56.032Z,4.18
2023-10-11T17:56:59.616Z,3.95
2023-10-11T18:01:03.141Z,3.60
2023-10-11T18:05:09.259Z,3.72
2023-10-11T18:09:17.567Z,4.18
2023-10-11T18:13:21.306Z,4.30
2023-10-11T18:17:29.854Z,4.53
2023-10-11T18:21:37.819Z,4.15
2023-10-11T18:25:43.602Z,3.63
2023-10-11T18:29:50.564Z,3.88
2023-10-11T18:33:56.502Z,3.30
2023-10-11T18:38:00.973Z,4.28
2023-10-11T18:42:06.453Z,4.70
2023-10-11T18:46:11.906Z,3.97
2023-10-11T18:50:16.462Z,3.85
2023-10-11T18:54:25.172Z,3.80
2023-10-11T18:58:33.491Z,3.35
2023-10-11T19:02:37.403Z,3.53
2023-10-11T19:06:41.655Z,2.58
2023-10-11T19:10:45.532Z,3.17
2023-10-11T19:14:52.369Z,2.38
2023-10-11T19:18:58.119Z,2.90
2023-10-11T19:23:03.564Z,2.38
2023-10-11T19:27:07.996Z,2.55
2023-10-11T19:31:17.312Z,2.67
2023-10-11T19:35:25.434Z,2.08
2023-10-11T19:39:37.469Z,2.80
2023-10-11T19:43:41.258Z,2.47
2023-10-11T20:03:55.670Z,2.40
2023-10-11T20:08:01.693Z,2.92
2023-10-11T20:12:07.899Z,2.55
2023-10-11T20:16:12.878Z,2.47
2023-10-11T20:20:20.879Z,2.88
2023-10-11T20:24:24.558Z,3.08
2023-10-11T20:28:32.806Z,3.58
2023-10-11T20:32:36.939Z,2.70
2023-10-11T20:36:43.830Z,2.63
2023-10-11T20:40:51.526Z,2.63
2023-10-11T20:44:55.290Z,3.67
2023-10-11T20:49:00.298Z,3.60
2023-10-11T20:53:05.600Z,3.42
2023-10-11T20:57:18.046Z,2.47
2023-10-11T21:01:22.149Z,2.58
2023-10-11T21:05:27.465Z,2.47
2023-10-11T21:09:33.278Z,2.35
2023-10-11T21:13:37.385Z,2.25
2023-10-11T21:17:42.218Z,2.65
2023-10-11T21:21:49.917Z,2.58
2023-10-11T21:26:01.720Z,2.20
2023-10-11T21:30:06.281Z,2.20
2023-10-11T21:34:13.361Z,2.42
2023-10-11T21:38:16.900Z,2.80
2023-10-11T21:42:23.480Z,2.75
2023-10-11T21:46:26.949Z,1.92
2023-10-11T21:50:31.225Z,3.15
2023-10-11T21:54:36.145Z,2.60
2023-10-11T21:58:41.935Z,2.97
2023-10-11T22:02:46.932Z,2.30
2023-10-11T22:06:51.530Z,3.00
2023-10-11T22:10:56.284Z,2.70
2023-10-11T22:15:06.194Z,2.03
2023-10-11T22:19:16.616Z,2.53
2023-10-11T22:23:21.814Z,3.22
2023-10-11T22:27:25.687Z,3.58
2023-10-11T22:31:31.979Z,2.75
2023-10-11T22:35:35.960Z,3.08
2023-10-11T22:39:39.544Z,2.50
2023-10-11T22:43:44.428Z,2.72
2023-10-11T22:47:49.792Z,2.78
2023-10-11T22:51:56.445Z,3.13
2023-10-11T22:55:59.867Z,2.15
2023-10-11T23:00:05.336Z,2.60
2023-10-11T23:04:10.320Z,3.10
2023-10-11T23:08:14.709Z,2.63
2023-10-11T23:12:21.980Z,2.80
2023-10-11T23:16:28.857Z,1.88
2023-10-11T23:20:40.100Z,2.60
2023-10-11T23:24:46.038Z,2.65
2023-10-11T23:28:49.520Z,2.88
2023-10-11T23:33:09.020Z,2.15
2023-10-11T23:37:16.069Z,2.67
2023-10-11T23:41:21.371Z,2.58
2023-10-11T23:45:24.647Z,2.67
2023-10-11T23:53:45.292Z,3.05
2023-10-11T23:57:51.093Z,2.50
